createdAt,value
2023-02-11T04:05:09.698Z,99429.91
2023-02-11T04:07:37.395Z,99435.48
2023-02-11T04:10:06.236Z,99427.38
2023-02-11T04:12:33.986Z,99429.47
2023-02-11T04:15:01.623Z,99419.59
2023-02-11T04:17:29.064Z,99430.38
2023-02-11T04:19:56.976Z,99416.43
2023-02-11T04:22:24.714Z,99412.80
2023-02-11T04:24:52.114Z,99416.69
2023-02-11T04:27:19.996Z,99419.14
2023-02-11T04:29:47.915Z,99408.73
2023-02-11T04:32:16.047Z,99397.94
2023-02-11T04:34:44.068Z,99397.98
2023-02-11T04:37:11.912Z,99404.94
2023-02-11T04:39:39.787Z,99388.68
2023-02-11T04:42:07.644Z,99391.82
2023-02-11T04:44:35.276Z,99395.15
2023-02-11T04:47:03.445Z,99391.02
2023-02-11T04:49:31.305Z,99391.52
2023-02-11T04:51:59.019Z,99394.67
2023-02-11T04:54:26.996Z,99381.38
2023-02-11T04:56:54.601Z,99378.28
2023-02-11T04:59:22.266Z,99380.09
2023-02-11T05:01:50.134Z,99374.19
2023-02-11T05:04:18.748Z,99375.81
2023-02-11T05:06:46.414Z,99374.17
2023-02-11T05:09:14.209Z,99384.67
2023-02-11T05:11:42.516Z,99382.52
2023-02-11T05:14:10.181Z,99374.45
2023-02-11T05:16:38.120Z,99384.97
2023-02-11T05:19:05.612Z,99380.86
2023-02-11T05:21:33.560Z,99379.41
2023-02-11T05:24:01.303Z,99382.37
2023-02-11T05:26:29.270Z,99373.47
2023-02-11T05:28:57.170Z,99382.85
2023-02-11T05:31:25.017Z,99380.87
2023-02-11T05:33:53.589Z,99383.36
2023-02-11T05:36:21.649Z,99381.69
2023-02-11T05:38:50.374Z,99383.02
2023-02-11T05:41:17.814Z,99375.48
2023-02-11T05:43:53.690Z,99378.13
2023-02-11T05:46:21.394Z,99375.66
2023-02-11T05:48:49.329Z,99380.12
2023-02-11T05:51:17.196Z,99375.55
2023-02-11T05:53:44.869Z,99381.33
2023-02-11T05:56:14.147Z,99378.20
2023-02-11T05:58:42.255Z,99375.89
2023-02-11T06:01:09.842Z,99373.91
2023-02-11T06:03:37.673Z,99382.80
2023-02-11T06:06:12.520Z,99381.66
2023-02-11T06:08:40.244Z,99376.22
2023-02-11T06:11:08.221Z,99371.27
2023-02-11T06:13:36.346Z,99370.30
2023-02-11T06:16:04.740Z,99368.47
2023-02-11T06:18:33.232Z,99373.23
2023-02-11T06:21:01.442Z,99372.22
2023-02-11T06:23:30.443Z,99379.59
2023-02-11T06:26:03.071Z,99384.03
2023-02-11T06:28:31.080Z,99380.58
2023-02-11T06:31:07.194Z,99385.66
2023-02-11T06:33:35.568Z,99386.64
2023-02-11T06:36:04.998Z,99376.09
2023-02-11T06:38:32.856Z,99387.91
2023-02-11T06:41:00.505Z,99388.90
2023-02-11T06:43:28.252Z,99386.78
2023-02-11T06:45:56.163Z,99375.61
2023-02-11T06:48:24.145Z,99374.17
2023-02-11T06:50:51.739Z,99377.78
2023-02-11T06:53:19.444Z,99376.34
2023-02-11T06:55:46.925Z,99371.91
2023-02-11T06:58:15.203Z,99371.25
2023-02-11T07:00:42.818Z,99371.94
2023-02-11T07:03:10.499Z,99365.69
2023-02-11T07:05:38.321Z,99360.75
2023-02-11T07:08:05.984Z,99356.17
2023-02-11T07:10:34.148Z,99354.17
2023-02-11T07:13:02.060Z,99355.98
2023-02-11T07:15:29.809Z,99358.77
2023-02-11T07:17:57.761Z,99349.19
2023-02-11T07:20:26.398Z,99354.06
2023-02-11T07:22:54.504Z,99349.60
2023-02-11T07:25:22.524Z,99349.07
2023-02-11T07:27:50.398Z,99347.05
2023-02-11T07:30:18.164Z,99340.46
2023-02-11T07:32:46.145Z,99349.99
2023-02-11T07:35:14.433Z,99343.36
2023-02-11T07:37:42.264Z,99340.34
2023-02-11T07:40:11.011Z,99345.91
2023-02-11T07:42:40.861Z,99344.55
2023-02-11T07:45:09.189Z,99341.52
2023-02-11T07:47:37.970Z,99346.09
2023-02-11T07:50:06.415Z,99339.73
2023-02-11T07:52:33.966Z,99345.23
2023-02-11T07:55:04.680Z,99346.43
2023-02-11T07:57:31.800Z,99336.27
2023-02-11T08:00:01.443Z,99337.95
2023-02-11T08:02:30.959Z,99329.20
2023-02-11T08:04:58.797Z,99331.30
2023-02-11T08:07:28.148Z,99335.69
2023-02-11T08:09:56.037Z,99333.34
2023-02-11T08:12:23.870Z,99332.96
2023-02-11T08:14:51.914Z,99323.34
2023-02-11T08:17:19.673Z,99322.25
2023-02-11T08:19:47.600Z,99315.54
2023-02-11T08:22:15.388Z,99317.11
2023-02-11T08:24:43.130Z,99311.02
2023-02-11T08:27:10.673Z,99304.75
2023-02-11T08:29:38.358Z,99301.23
2023-02-11T08:32:06.172Z,99301.23
2023-02-11T08:34:33.725Z,99295.18
2023-02-11T08:37:01.407Z,99298.67
2023-02-11T08:39:29.052Z,99290.98
2023-02-11T08:41:56.793Z,99282.67
2023-02-11T08:44:24.649Z,99282.50
2023-02-11T08:46:52.737Z,99287.48
2023-02-11T08:49:28.616Z,99287.72
2023-02-11T08:52:03.866Z,99287.23
2023-02-11T08:54:40.603Z,99283.06
2023-02-11T08:57:15.583Z,99286.02
2023-02-11T09:02:29.439Z,99278.77
2023-02-11T09:04:57.354Z,99277.59
2023-02-11T09:07:25.030Z,99275.56
2023-02-11T09:09:52.974Z,99272.55
2023-02-11T09:12:20.686Z,99270.48
2023-02-11T09:14:48.228Z,99263.47
2023-02-11T09:17:16.060Z,99267.54
2023-02-11T09:19:43.546Z,99272.00
2023-02-11T09:22:11.138Z,99260.27
2023-02-11T09:24:39.086Z,99258.56
2023-02-11T09:27:06.998Z,99250.00
2023-02-11T09:29:35.034Z,99247.47
2023-02-11T09:32:02.794Z,99246.53
2023-02-11T09:34:32.405Z,99247.26
2023-02-11T09:37:00.013Z,99243.91
2023-02-11T09:39:28.798Z,99235.19
2023-02-11T09:42:06.971Z,99237.36
2023-02-11T09:44:37.278Z,99237.36
2023-02-11T09:47:21.599Z,99225.42
2023-02-11T09:49:54.325Z,99215.77
2023-02-11T09:52:48.923Z,99212.30
2023-02-11T09:55:42.001Z,99207.38
2023-02-11T09:58:16.666Z,99207.38
2023-02-11T10:01:09.268Z,99198.70
2023-02-11T10:04:19.909Z,99192.99
2023-02-11T10:06:57.945Z,99187.50
2023-02-11T10:09:53.659Z,99190.36
2023-02-11T10:12:54.570Z,99190.36
2023-02-11T10:15:33.683Z,99178.02
2023-02-11T10:18:12.758Z,99190.90
2023-02-11T10:21:08.453Z,99191.40
2023-02-11T10:23:42.937Z,99194.59
2023-02-11T10:26:17.205Z,99196.94
2023-02-11T10:28:49.605Z,99181.49
2023-02-11T10:31:38.016Z,99181.49
2023-02-11T10:34:10.071Z,99174.26
2023-02-11T10:36:44.649Z,99164.63
2023-02-11T10:39:22.570Z,99159.69
2023-02-11T10:42:07.156Z,99166.23
2023-02-11T10:45:00.116Z,99152.38
2023-02-11T10:47:32.971Z,99140.11
2023-02-11T10:50:02.531Z,99133.30
2023-02-11T10:52:31.099Z,99133.30
2023-02-11T10:55:06.891Z,99134.09
2023-02-11T10:57:45.459Z,99127.16
2023-02-11T11:00:43.073Z,99120.78
2023-02-11T11:03:23.881Z,99120.78
2023-02-11T11:06:01.870Z,99118.52
2023-02-11T11:08:50.997Z,99114.92
2023-02-11T11:11:22.950Z,99110.93
2023-02-11T11:13:58.631Z,99101.22
2023-02-11T11:16:34.113Z,99097.82
2023-02-11T11:19:13.322Z,99090.53
2023-02-11T11:21:50.616Z,99090.53
2023-02-11T11:24:29.164Z,99082.34
2023-02-11T11:27:02.522Z,99065.59
2023-02-11T11:29:53.324Z,99067.75
2023-02-11T11:32:25.627Z,99064.96
2023-02-11T11:34:58.428Z,99051.39
2023-02-11T11:37:33.024Z,99051.42
2023-02-11T11:40:24.167Z,99052.59
2023-02-11T11:43:18.993Z,99052.59
2023-02-11T11:45:59.467Z,99045.91
2023-02-11T11:48:32.621Z,99036.83
2023-02-11T11:51:04.512Z,99039.84
2023-02-11T11:53:43.443Z,99031.27
2023-02-11T11:56:19.896Z,99028.90
2023-02-11T11:58:48.968Z,99022.47
2023-02-11T12:01:49.455Z,99026.22
2023-02-11T12:04:41.233Z,99017.75
2023-02-11T12:07:31.845Z,99022.34
2023-02-11T12:10:23.273Z,99013.69
2023-02-11T12:13:33.171Z,99009.59
2023-02-11T12:16:18.272Z,99015.96
2023-02-11T12:19:24.034Z,99006.12
2023-02-11T12:22:06.312Z,99005.45
2023-02-11T12:24:51.590Z,98988.52
2023-02-11T12:27:36.441Z,98990.82
2023-02-11T12:30:29.379Z,98986.55
2023-02-11T12:33:17.652Z,98979.32
2023-02-11T12:36:41.249Z,98969.19
2023-02-11T12:39:35.512Z,98964.82
2023-02-11T12:42:43.792Z,98964.24
2023-02-11T12:45:32.015Z,98968.84
2023-02-11T12:48:28.058Z,98953.08
2023-02-11T12:51:28.009Z,98962.60
2023-02-11T12:54:19.226Z,98942.63
2023-02-11T12:56:52.784Z,98945.66
2023-02-11T12:59:26.937Z,98947.33
2023-02-11T13:01:56.919Z,98951.26
2023-02-11T13:04:41.636Z,98945.35
2023-02-11T13:07:30.634Z,98943.70
2023-02-11T13:10:09.726Z,98936.07
2023-02-11T13:12:56.732Z,98927.91
2023-02-11T13:15:25.475Z,98929.53
2023-02-11T13:18:26.201Z,98922.08
2023-02-11T13:21:17.243Z,98921.87
2023-02-11T13:24:13.154Z,98921.13
2023-02-11T13:27:02.751Z,98921.00
2023-02-11T13:30:12.894Z,98916.78
2023-02-11T13:33:01.330Z,98920.26
2023-02-11T13:35:39.386Z,98913.91
2023-02-11T13:38:18.647Z,98906.48
2023-02-11T13:41:07.543Z,98905.16
2023-02-11T13:43:36.824Z,98907.02
2023-02-11T13:46:09.576Z,98902.78
2023-02-11T13:48:48.376Z,98905.91
2023-02-11T13:51:20.773Z,98913.59
2023-02-11T13:53:59.090Z,98911.69
2023-02-11T13:56:37.193Z,98909.30
2023-02-11T13:59:30.084Z,98906.64
2023-02-11T14:02:54.097Z,98897.75
2023-02-11T14:05:47.681Z,98902.74
2023-02-11T14:08:43.017Z,98915.23
2023-02-11T14:11:41.162Z,98908.28
2023-02-11T14:14:34.358Z,98906.66
2023-02-11T14:17:13.549Z,98903.99
2023-02-11T14:19:46.944Z,98894.14
2023-02-11T14:22:46.663Z,98889.57
2023-02-11T14:25:24.225Z,98886.96
2023-02-11T14:28:12.996Z,98882.67
2023-02-11T14:30:55.321Z,98876.73
2023-02-11T14:33:50.112Z,98869.27
2023-02-11T14:36:32.337Z,98869.73
2023-02-11T14:39:30.963Z,98867.00
2023-02-11T14:42:01.512Z,98867.00
2023-02-11T14:44:32.866Z,98863.01
2023-02-11T14:47:00.743Z,98858.48
2023-02-11T14:49:35.647Z,98853.97
2023-02-11T14:52:31.900Z,98856.40
2023-02-11T14:55:08.453Z,98858.05
2023-02-11T14:57:37.381Z,98850.55
2023-02-11T15:00:16.492Z,98855.88
2023-02-11T15:02:44.832Z,98859.30
2023-02-11T15:05:26.302Z,98845.89
2023-02-11T15:08:01.374Z,98850.41
2023-02-11T15:10:40.608Z,98857.36
2023-02-11T15:13:08.943Z,98853.36
2023-02-11T15:15:40.392Z,98853.36
2023-02-11T15:18:09.809Z,98847.46
2023-02-11T15:20:37.509Z,98844.52
2023-02-11T15:23:12.259Z,98854.70
2023-02-11T15:25:46.251Z,98860.78
2023-02-11T15:28:24.817Z,98850.05
2023-02-11T15:31:02.705Z,98854.84
2023-02-11T15:33:32.540Z,98853.98
2023-02-11T15:36:02.320Z,98852.66
2023-02-11T15:38:30.910Z,98845.99
2023-02-11T15:41:02.484Z,98843.33
2023-02-11T15:43:50.738Z,98845.67
2023-02-11T15:46:21.974Z,98844.95
2023-02-11T15:48:53.983Z,98842.20
2023-02-11T15:51:28.943Z,98839.02
2023-02-11T15:54:00.867Z,98836.50
2023-02-11T15:56:42.881Z,98831.94
2023-02-11T15:59:30.769Z,98833.41
2023-02-11T16:02:07.462Z,98834.52
2023-02-11T16:04:36.393Z,98831.48
2023-02-11T16:07:04.747Z,98837.05
2023-02-11T16:09:36.795Z,98841.84
2023-02-11T16:12:21.799Z,98850.20
2023-02-11T16:14:49.862Z,98840.37
2023-02-11T16:17:21.980Z,98843.61
2023-02-11T16:19:52.003Z,98836.23
2023-02-11T16:22:29.753Z,98839.47
2023-02-11T16:24:59.756Z,98842.65
2023-02-11T16:27:40.075Z,98837.84
2023-02-11T16:30:34.296Z,98839.47
2023-02-11T16:33:02.505Z,98834.14
2023-02-11T16:35:30.304Z,98836.80
2023-02-11T16:37:58.008Z,98841.41
2023-02-11T16:40:25.665Z,98837.41
2023-02-11T16:42:53.165Z,98828.32
2023-02-11T16:45:20.844Z,98838.45
2023-02-11T16:47:48.410Z,98837.93
2023-02-11T16:50:22.659Z,98836.08
2023-02-11T16:52:51.998Z,98837.70
2023-02-11T16:55:22.041Z,98835.32
2023-02-11T16:57:49.408Z,98836.97
2023-02-11T17:00:18.440Z,98824.98
2023-02-11T17:02:46.438Z,98826.31
2023-02-11T17:05:22.499Z,98815.50
2023-02-11T17:07:50.323Z,98820.39
2023-02-11T17:10:23.045Z,98813.73
2023-02-11T17:12:52.922Z,98801.61
2023-02-11T17:15:20.658Z,98801.61
2023-02-11T17:17:48.455Z,98802.19
2023-02-11T17:20:16.881Z,98789.91
2023-02-11T17:22:44.580Z,98782.59
2023-02-11T17:25:12.346Z,98785.02
2023-02-11T17:27:40.106Z,98778.08
2023-02-11T17:30:08.852Z,98777.88
2023-02-11T17:32:37.582Z,98768.76
2023-02-11T17:35:06.700Z,98768.76
2023-02-11T17:37:34.466Z,98762.62
2023-02-11T17:40:02.474Z,98771.42
2023-02-11T17:42:30.832Z,98767.95
2023-02-11T17:44:58.395Z,98767.66
2023-02-11T17:47:26.103Z,98766.05
2023-02-11T17:49:53.474Z,98758.63
2023-02-11T17:52:21.195Z,98762.10
2023-02-11T17:54:48.786Z,98754.11
2023-02-11T17:57:18.674Z,98756.05
2023-02-11T17:59:46.541Z,98764.90
2023-02-11T18:02:14.127Z,98771.88
2023-02-11T18:04:41.787Z,98771.12
2023-02-11T18:07:09.312Z,98777.78
2023-02-11T18:09:39.910Z,98774.91
2023-02-11T18:12:10.315Z,98769.34
2023-02-11T18:14:39.930Z,98781.17
2023-02-11T18:17:07.726Z,98781.17
2023-02-11T18:19:37.070Z,98781.55
2023-02-11T18:22:04.648Z,98783.92
2023-02-11T18:24:32.357Z,98783.97
2023-02-11T18:27:00.156Z,98783.97
2023-02-11T18:29:28.052Z,98791.16
2023-02-11T18:31:56.726Z,98788.73
2023-02-11T18:34:25.302Z,98783.40
2023-02-11T18:36:52.898Z,98784.41
2023-02-11T18:39:22.654Z,98789.73
2023-02-11T18:41:51.963Z,98784.41
2023-02-11T18:44:22.142Z,98792.20
2023-02-11T18:46:51.333Z,98795.91
2023-02-11T18:49:20.227Z,98793.45
2023-02-11T18:51:47.759Z,98787.84
2023-02-11T18:54:15.263Z,98794.20
2023-02-11T18:56:43.035Z,98789.61
2023-02-11T18:59:10.821Z,98794.13
2023-02-11T19:01:41.693Z,98792.70
2023-02-11T19:04:09.721Z,98783.63
2023-02-11T19:06:38.563Z,98788.72
2023-02-11T19:09:10.623Z,98782.06
2023-02-11T19:11:53.621Z,98785.77
2023-02-11T19:14:29.222Z,98790.80
2023-02-11T19:16:59.762Z,98788.14
2023-02-11T19:19:31.283Z,98782.53
2023-02-11T19:22:01.133Z,98784.88
2023-02-11T19:24:30.172Z,98782.53
2023-02-11T19:27:00.912Z,98787.53
2023-02-11T19:29:31.725Z,98783.86
2023-02-11T19:31:59.488Z,98779.05
2023-02-11T19:34:26.903Z,98776.88
2023-02-11T19:36:56.225Z,98778.22
2023-02-11T19:39:24.304Z,98774.22
2023-02-11T19:41:52.737Z,98764.90
2023-02-11T19:44:20.739Z,98760.48
2023-02-11T19:46:49.731Z,98760.48
2023-02-11T19:49:19.477Z,98766.38
2023-02-11T19:51:49.237Z,98760.77
2023-02-11T19:54:17.198Z,98756.05
2023-02-11T19:56:45.447Z,98754.72
2023-02-11T19:59:15.704Z,98742.94
2023-02-11T20:01:45.262Z,98751.16
2023-02-11T20:04:13.762Z,98736.96
2023-02-11T20:06:41.481Z,98740.80
2023-02-11T20:09:13.020Z,98743.46
2023-02-11T20:11:42.053Z,98735.47
2023-02-11T20:14:14.870Z,98737.09
2023-02-11T20:16:49.198Z,98728.09
2023-02-11T20:19:17.516Z,98723.34
2023-02-11T20:21:47.968Z,98717.88
2023-02-11T20:24:17.878Z,98717.88
2023-02-11T20:26:47.759Z,98708.56
2023-02-11T20:29:17.540Z,98708.84
2023-02-11T20:31:45.522Z,98709.37
2023-02-11T20:34:13.816Z,98704.56
2023-02-11T20:36:41.460Z,98705.37
2023-02-11T20:39:13.264Z,98711.22
2023-02-11T20:41:41.027Z,98705.37
2023-02-11T20:44:10.372Z,98708.84
2023-02-11T20:46:41.458Z,98713.60
2023-02-11T20:49:15.467Z,98705.09
2023-02-11T20:51:43.725Z,98695.69
2023-02-11T20:54:15.288Z,98701.54
2023-02-11T20:56:46.781Z,98700.73
2023-02-11T20:59:14.357Z,98694.88
2023-02-11T21:01:48.646Z,98699.69
2023-02-11T21:04:20.274Z,98696.58
2023-02-11T21:06:51.859Z,98697.09
2023-02-11T21:09:26.321Z,98698.44
2023-02-11T21:11:54.964Z,98698.64
2023-02-11T21:14:24.735Z,98693.31
2023-02-11T21:16:53.000Z,98682.25
2023-02-11T21:19:20.911Z,98698.95
2023-02-11T21:21:48.737Z,98697.02
2023-02-11T21:24:16.752Z,98692.30
2023-02-11T21:26:44.521Z,98691.48
2023-02-11T21:29:12.183Z,98686.38
2023-02-11T21:31:40.178Z,98690.65
2023-02-11T21:34:08.253Z,98689.64
2023-02-11T21:36:36.199Z,98689.03
2023-02-11T21:39:05.101Z,98687.98
2023-02-11T21:41:35.095Z,98689.03
2023-02-11T21:44:03.666Z,98690.08
2023-02-11T21:46:31.187Z,98692.74
2023-02-11T21:48:59.820Z,98686.89
2023-02-11T21:51:28.213Z,98690.08
2023-02-11T21:54:00.880Z,98697.26
2023-02-11T21:56:31.439Z,98694.59
2023-02-11T21:58:59.995Z,98689.27
2023-02-11T22:01:32.266Z,98683.42
2023-02-11T22:04:00.105Z,98689.80
2023-02-11T22:06:31.387Z,98689.80
2023-02-11T22:09:06.367Z,98689.48
2023-02-11T22:11:34.805Z,98694.36
2023-02-11T22:14:03.857Z,98694.73
2023-02-11T22:16:31.837Z,98699.61
2023-02-11T22:19:01.872Z,98694.33
2023-02-11T22:21:29.863Z,98696.27
2023-02-11T22:23:57.668Z,98695.74
2023-02-11T22:26:27.474Z,98703.97
2023-02-11T22:28:56.023Z,98702.63
2023-02-11T22:31:28.345Z,98699.89
2023-02-11T22:33:57.061Z,98705.45
2023-02-11T22:36:29.123Z,98704.94
2023-02-11T22:39:07.262Z,98707.96
2023-02-11T22:41:35.274Z,98704.54
2023-02-11T22:44:02.751Z,98702.40
2023-02-11T22:46:30.581Z,98705.82
2023-02-11T22:48:58.629Z,98710.15
2023-02-11T22:51:29.089Z,98718.14
2023-02-11T22:54:01.320Z,98717.12
2023-02-11T22:56:31.348Z,98709.95
2023-02-11T22:59:01.514Z,98712.61
2023-02-11T23:01:31.156Z,98714.38
2023-02-11T23:04:05.170Z,98712.69
2023-02-11T23:06:33.251Z,98710.78
2023-02-11T23:09:03.901Z,98713.36
2023-02-11T23:11:32.546Z,98707.67
2023-02-11T23:14:02.704Z,98716.70
2023-02-11T23:16:34.178Z,98708.43
2023-02-11T23:19:06.177Z,98701.54
2023-02-11T23:21:37.745Z,98704.72
2023-02-11T23:24:10.628Z,98703.39
2023-02-11T23:26:41.210Z,98705.01
2023-02-11T23:29:09.481Z,98700.20
2023-02-11T23:31:42.814Z,98703.67
2023-02-11T23:34:10.846Z,98694.07
2023-02-11T23:36:38.569Z,98696.73
2023-02-11T23:39:06.401Z,98697.02
2023-02-11T23:41:34.311Z,98693.19
2023-02-11T23:44:01.908Z,98683.58
2023-02-11T23:46:29.514Z,98675.91
2023-02-11T23:48:57.130Z,98684.78
2023-02-11T23:51:24.914Z,98688.17
2023-02-11T23:53:55.545Z,98687.64
2023-02-11T23:56:26.729Z,98684.17
2023-02-11T23:58:57.660Z,98684.41
